createdAt,value
2019-04-30T00:00:45.292Z,10.70
2019-04-30T00:03:11.513Z,10.60
2019-04-30T00:05:19.126Z,10.60
2019-04-30T00:07:25.764Z,10.60
2019-04-30T00:09:35.033Z,10.60
2019-04-30T00:11:40.685Z,10.60
2019-04-30T00:13:50.195Z,10.60
2019-04-30T00:16:00.130Z,10.60
2019-04-30T00:18:01.851Z,10.60
2019-04-30T00:20:07.777Z,10.70
2019-04-30T00:22:15.834Z,10.60
2019-04-30T00:24:21.535Z,10.60
2019-04-30T00:26:27.215Z,10.50
2019-04-30T00:28:32.880Z,10.40
2019-04-30T00:30:39.264Z,10.40
2019-04-30T00:32:47.173Z,10.40
2019-04-30T00:34:55.602Z,10.40
2019-04-30T00:37:00.993Z,10.30
2019-04-30T00:39:13.157Z,10.30
2019-04-30T00:41:15.537Z,10.30
2019-04-30T00:43:21.444Z,10.30
2019-04-30T00:45:27.088Z,10.30
2019-04-30T00:47:35.156Z,10.40
2019-04-30T00:49:40.812Z,10.30
2019-04-30T00:51:49.844Z,10.30
2019-04-30T00:53:55.640Z,10.30
2019-04-30T00:56:00.918Z,10.30
2019-04-30T00:58:06.503Z,10.30
2019-04-30T01:00:19.722Z,10.20
2019-04-30T01:02:29.192Z,10.20
2019-04-30T01:04:31.953Z,10.20
2019-04-30T01:06:37.655Z,10.30
2019-04-30T01:08:43.291Z,10.30
2019-04-30T01:10:48.807Z,10.40
2019-04-30T01:12:54.392Z,10.40
2019-04-30T01:15:01.679Z,10.50
2019-04-30T01:17:10.806Z,10.40
2019-04-30T01:19:27.192Z,10.50
2019-04-30T01:21:22.199Z,10.50
2019-04-30T01:23:29.617Z,10.50
2019-04-30T01:25:35.593Z,10.60
2019-04-30T01:27:45.757Z,10.60
2019-04-30T01:29:48.812Z,10.60
2019-04-30T01:31:54.356Z,10.60
2019-04-30T01:33:59.935Z,10.50
2019-04-30T01:36:09.573Z,10.60
2019-04-30T01:38:12.928Z,10.60
2019-04-30T01:40:19.042Z,10.60
2019-04-30T01:42:24.849Z,10.70
2019-04-30T01:44:30.375Z,10.70
2019-04-30T01:46:35.985Z,10.70
2019-04-30T01:48:43.586Z,10.70
2019-04-30T01:50:48.874Z,10.70
2019-04-30T01:52:54.499Z,10.70
2019-04-30T01:55:00.312Z,10.70
2019-04-30T01:57:10.723Z,10.70
2019-04-30T01:59:29.125Z,10.70
2019-04-30T02:01:36.609Z,10.70
2019-04-30T02:03:42.676Z,10.70
2019-04-30T02:05:49.830Z,10.70
2019-04-30T02:07:55.505Z,10.70
2019-04-30T02:10:01.099Z,10.80
2019-04-30T02:12:06.983Z,10.80
2019-04-30T02:14:12.714Z,10.80
2019-04-30T02:16:18.706Z,10.80
2019-04-30T02:18:25.523Z,10.80
2019-04-30T02:20:31.057Z,10.80
2019-04-30T02:22:38.595Z,10.90
2019-04-30T02:24:43.955Z,10.90
2019-04-30T02:26:49.564Z,10.90
2019-04-30T02:28:55.157Z,10.90
2019-04-30T02:31:00.811Z,11.00
2019-04-30T02:33:09.564Z,11.00
2019-04-30T02:35:33.033Z,11.00
2019-04-30T02:37:43.416Z,11.00
2019-04-30T02:39:50.185Z,11.10
2019-04-30T02:41:55.429Z,11.00
2019-04-30T02:44:02.933Z,11.00
2019-04-30T02:46:09.810Z,11.00
2019-04-30T02:48:19.411Z,11.00
2019-04-30T02:50:29.196Z,11.10
2019-04-30T02:52:35.469Z,11.00
2019-04-30T02:54:44.228Z,11.10
2019-04-30T02:56:51.797Z,11.10
2019-04-30T02:59:03.221Z,11.10
2019-04-30T03:01:04.560Z,11.10
2019-04-30T03:03:10.948Z,11.10
2019-04-30T03:05:16.659Z,11.20
2019-04-30T03:07:22.316Z,11.20
2019-04-30T03:09:29.693Z,11.20
2019-04-30T03:11:35.115Z,11.20
2019-04-30T03:13:42.791Z,11.10
2019-04-30T03:15:49.360Z,11.20
2019-04-30T03:17:56.902Z,11.20
2019-04-30T03:20:31.423Z,11.20
2019-04-30T03:22:26.080Z,11.20
2019-04-30T03:24:31.712Z,11.10
2019-04-30T03:26:39.792Z,11.10
2019-04-30T03:28:44.451Z,11.10
2019-04-30T03:30:56.156Z,11.20
2019-04-30T03:32:57.385Z,11.20
2019-04-30T03:35:04.461Z,11.20
2019-04-30T03:37:10.228Z,11.20
2019-04-30T03:39:15.829Z,11.20
2019-04-30T03:41:21.360Z,11.20
2019-04-30T03:43:26.899Z,11.20
2019-04-30T03:45:32.825Z,11.20
2019-04-30T03:47:42.853Z,11.20
2019-04-30T03:49:45.576Z,11.30
2019-04-30T03:51:51.193Z,11.30
2019-04-30T03:53:58.916Z,11.30
2019-04-30T03:56:04.034Z,11.20
2019-04-30T03:58:09.572Z,11.30
2019-04-30T04:00:16.857Z,11.30
2019-04-30T04:02:24.119Z,11.30
2019-04-30T04:04:33.763Z,11.20
2019-04-30T04:06:55.992Z,11.20
2019-04-30T04:09:14.886Z,11.20
2019-04-30T04:11:22.114Z,11.20
2019-04-30T04:13:30.092Z,11.20
2019-04-30T04:15:36.109Z,11.30
2019-04-30T04:17:41.669Z,11.20
2019-04-30T04:19:51.181Z,11.30
2019-04-30T04:21:56.749Z,11.30
2019-04-30T04:24:02.274Z,11.30
2019-04-30T04:26:09.412Z,11.30
2019-04-30T04:28:15.233Z,11.30
2019-04-30T04:30:21.870Z,11.30
2019-04-30T04:32:30.507Z,11.30
2019-04-30T04:34:34.652Z,11.40
2019-04-30T04:36:43.524Z,11.30
2019-04-30T04:38:50.403Z,11.40
2019-04-30T04:40:54.569Z,11.40
2019-04-30T04:43:00.498Z,11.60
2019-04-30T04:45:06.336Z,11.50
2019-04-30T04:47:12.123Z,11.60
2019-04-30T04:49:20.577Z,11.60
2019-04-30T04:51:36.687Z,11.60
2019-04-30T04:53:32.503Z,11.60
2019-04-30T04:55:40.039Z,11.60
2019-04-30T04:57:45.311Z,11.70
2019-04-30T04:59:50.895Z,11.70
2019-04-30T05:01:56.586Z,11.60
2019-04-30T05:04:03.264Z,11.70
2019-04-30T05:06:11.389Z,11.70
2019-04-30T05:08:18.552Z,11.70
2019-04-30T05:10:24.221Z,11.80
2019-04-30T05:12:29.917Z,11.90
2019-04-30T05:14:35.474Z,11.80
2019-04-30T05:16:41.071Z,11.90
2019-04-30T05:18:48.662Z,11.80
2019-04-30T05:20:53.791Z,11.90
2019-04-30T05:22:59.500Z,11.90
2019-04-30T05:25:08.669Z,12.00
2019-04-30T05:27:13.889Z,12.00
2019-04-30T05:29:19.536Z,11.90
2019-04-30T05:31:25.121Z,12.00
2019-04-30T05:33:30.677Z,12.00
2019-04-30T05:35:36.247Z,11.90
2019-04-30T05:37:41.858Z,11.90
2019-04-30T05:39:48.887Z,12.00
2019-04-30T05:41:54.672Z,12.10
2019-04-30T05:44:00.349Z,12.10
2019-04-30T05:46:05.982Z,12.10
2019-04-30T05:48:11.581Z,12.20
2019-04-30T05:50:17.270Z,12.30
2019-04-30T05:52:22.800Z,12.30
2019-04-30T05:54:29.228Z,12.30
2019-04-30T05:56:34.860Z,12.50
2019-04-30T05:58:40.748Z,12.60
2019-04-30T06:00:46.282Z,12.80
2019-04-30T06:02:52.026Z,12.80
2019-04-30T06:04:58.777Z,12.90
2019-04-30T06:07:04.721Z,12.90
2019-04-30T06:09:22.704Z,12.90
2019-04-30T06:11:40.383Z,12.90
2019-04-30T06:13:49.104Z,12.90
2019-04-30T06:15:59.428Z,12.90
2019-04-30T06:18:11.555Z,12.80
2019-04-30T06:20:18.384Z,12.70
2019-04-30T06:22:20.553Z,12.60
2019-04-30T06:24:28.083Z,12.60
2019-04-30T06:26:33.456Z,12.60
2019-04-30T06:28:41.503Z,12.60
2019-04-30T06:30:46.564Z,12.60
2019-04-30T06:32:52.530Z,12.60
2019-04-30T06:34:59.302Z,12.70
2019-04-30T06:37:05.166Z,12.80
2019-04-30T06:39:10.695Z,12.90
2019-04-30T06:41:16.406Z,13.00
2019-04-30T06:43:22.447Z,13.30
2019-04-30T06:45:29.043Z,13.40
2019-04-30T06:47:35.933Z,13.30
2019-04-30T06:49:41.598Z,13.40
2019-04-30T06:51:49.084Z,13.50
2019-04-30T06:53:54.340Z,13.50
2019-04-30T06:55:59.882Z,13.50
2019-04-30T06:58:14.157Z,13.40
2019-04-30T07:00:12.960Z,13.30
2019-04-30T07:02:19.674Z,13.40
2019-04-30T07:04:25.530Z,13.40
2019-04-30T07:06:36.767Z,13.40
2019-04-30T07:08:54.841Z,13.40
2019-04-30T07:11:11.533Z,13.40
2019-04-30T07:13:21.538Z,13.30
2019-04-30T07:15:27.195Z,13.30
2019-04-30T07:17:32.790Z,13.20
2019-04-30T07:19:53.335Z,13.20
2019-04-30T07:21:45.650Z,13.10
2019-04-30T07:23:51.600Z,13.20
2019-04-30T07:25:58.984Z,13.00
2019-04-30T07:28:04.361Z,13.00
2019-04-30T07:30:10.242Z,13.00
2019-04-30T07:32:15.819Z,13.10
2019-04-30T07:34:21.353Z,13.10
2019-04-30T07:36:43.430Z,13.10
2019-04-30T07:38:35.839Z,13.20
2019-04-30T07:40:41.252Z,13.20
2019-04-30T07:42:49.003Z,13.10
2019-04-30T07:44:54.033Z,13.10
2019-04-30T07:47:02.001Z,13.10
2019-04-30T07:49:10.083Z,13.20
2019-04-30T07:51:15.870Z,13.10
2019-04-30T07:53:22.010Z,13.20
2019-04-30T07:55:29.514Z,13.20
2019-04-30T07:57:34.941Z,13.20
2019-04-30T07:59:40.458Z,13.20
2019-04-30T08:02:03.158Z,13.30
2019-04-30T08:03:55.048Z,13.50
2019-04-30T08:06:02.366Z,13.50
2019-04-30T08:08:20.143Z,13.60
2019-04-30T08:10:18.642Z,13.70
2019-04-30T08:12:30.370Z,14.00
2019-04-30T08:14:30.840Z,14.10
2019-04-30T08:16:38.534Z,14.00
2019-04-30T08:18:43.705Z,14.30
2019-04-30T08:20:49.314Z,14.50
2019-04-30T08:22:54.872Z,14.80
2019-04-30T08:25:00.433Z,14.90
2019-04-30T08:27:09.578Z,15.10
2019-04-30T08:29:14.425Z,15.10
2019-04-30T08:31:19.945Z,15.00
2019-04-30T08:33:26.627Z,15.10
2019-04-30T08:35:32.223Z,15.20
2019-04-30T08:37:38.528Z,15.40
2019-04-30T08:39:44.297Z,15.60
2019-04-30T08:41:49.839Z,15.60
2019-04-30T08:43:55.421Z,15.50
2019-04-30T08:46:01.081Z,15.60
2019-04-30T08:48:08.982Z,15.50
2019-04-30T08:50:14.328Z,15.50
2019-04-30T08:52:20.382Z,15.70
2019-04-30T08:54:26.220Z,15.60
2019-04-30T08:56:31.849Z,15.50
2019-04-30T08:58:39.075Z,15.70
2019-04-30T09:00:44.870Z,15.80
2019-04-30T09:02:50.399Z,15.90
2019-04-30T09:05:00.221Z,16.00
2019-04-30T09:07:04.946Z,16.00
2019-04-30T09:09:12.233Z,16.10
2019-04-30T09:11:24.680Z,15.90
2019-04-30T09:13:25.297Z,15.80
2019-04-30T09:15:30.904Z,15.80
2019-04-30T09:17:38.543Z,15.80
2019-04-30T09:19:43.835Z,15.60
2019-04-30T09:21:49.500Z,15.80
2019-04-30T09:23:55.101Z,15.80
2019-04-30T09:26:00.742Z,16.00
2019-04-30T09:28:06.278Z,16.10
2019-04-30T09:30:12.134Z,15.90
2019-04-30T09:32:19.259Z,15.90
2019-04-30T09:34:25.049Z,15.70
2019-04-30T09:36:30.575Z,15.70
2019-04-30T09:38:36.101Z,15.80
2019-04-30T09:40:41.886Z,15.50
2019-04-30T09:42:48.750Z,15.50
2019-04-30T09:44:57.176Z,15.50
2019-04-30T09:47:01.596Z,15.50
2019-04-30T09:49:09.523Z,15.60
2019-04-30T09:51:14.983Z,15.60
2019-04-30T09:53:21.131Z,15.70
2019-04-30T09:55:28.913Z,15.70
2019-04-30T09:57:34.280Z,15.70
2019-04-30T09:59:39.917Z,15.80
2019-04-30T10:01:45.573Z,15.70
2019-04-30T10:03:51.671Z,15.80
2019-04-30T10:05:59.051Z,15.80
2019-04-30T10:08:05.027Z,15.90
2019-04-30T10:10:12.973Z,16.00
2019-04-30T10:12:19.573Z,16.00
2019-04-30T10:14:25.263Z,16.00
2019-04-30T10:16:32.509Z,16.00
2019-04-30T10:18:38.186Z,15.90
2019-04-30T10:20:44.618Z,15.80
2019-04-30T10:22:50.244Z,16.00
2019-04-30T10:24:55.909Z,16.00
2019-04-30T10:27:02.369Z,15.90
2019-04-30T10:29:09.034Z,16.00
2019-04-30T10:31:14.689Z,16.00
2019-04-30T10:33:20.357Z,16.10
2019-04-30T10:35:25.963Z,16.10
2019-04-30T10:37:31.555Z,16.20
2019-04-30T10:39:38.994Z,16.40
2019-04-30T10:41:44.715Z,16.60
2019-04-30T10:43:50.338Z,16.70
2019-04-30T10:45:55.929Z,16.60
2019-04-30T10:48:01.612Z,16.40
2019-04-30T10:50:07.360Z,16.50
2019-04-30T10:52:13.061Z,16.60
2019-04-30T10:54:25.999Z,16.60
2019-04-30T10:56:26.005Z,16.60
2019-04-30T10:58:31.617Z,16.50
2019-04-30T11:00:39.409Z,16.70
2019-04-30T11:02:45.213Z,17.00
2019-04-30T11:04:50.812Z,17.30
2019-04-30T11:07:00.158Z,17.50
2019-04-30T11:09:05.164Z,17.60
2019-04-30T11:11:10.817Z,17.50
2019-04-30T11:13:16.413Z,17.50
2019-04-30T11:15:22.072Z,17.40
2019-04-30T11:17:29.548Z,17.00
2019-04-30T11:19:35.015Z,17.00
2019-04-30T11:21:40.798Z,16.90
2019-04-30T11:23:46.607Z,16.70
2019-04-30T11:25:52.644Z,16.70
2019-04-30T11:27:59.150Z,17.10
2019-04-30T11:30:18.480Z,17.30
2019-04-30T11:32:19.313Z,17.60
2019-04-30T11:34:24.990Z,17.80
2019-04-30T11:36:30.578Z,17.90
2019-04-30T11:38:36.113Z,17.80
2019-04-30T11:40:41.704Z,17.40
2019-04-30T11:42:47.233Z,17.30
2019-04-30T11:44:52.765Z,17.10
2019-04-30T11:47:01.373Z,16.90
2019-04-30T11:49:07.029Z,16.60
2019-04-30T11:51:12.669Z,16.60
2019-04-30T11:53:25.486Z,16.60
2019-04-30T11:55:26.882Z,16.70
2019-04-30T11:57:32.581Z,16.70
2019-04-30T11:59:39.547Z,16.90
2019-04-30T12:01:45.310Z,17.00
2019-04-30T12:03:50.856Z,16.90
2019-04-30T12:05:56.435Z,16.80
2019-04-30T12:08:12.540Z,16.60
2019-04-30T12:10:39.194Z,16.60
2019-04-30T12:12:45.821Z,16.30
2019-04-30T12:14:51.347Z,16.00
2019-04-30T12:16:56.930Z,15.80
2019-04-30T12:19:02.850Z,15.80
2019-04-30T12:21:08.365Z,15.60
2019-04-30T12:23:13.908Z,15.70
2019-04-30T12:25:19.668Z,15.60
2019-04-30T12:27:25.241Z,15.70
2019-04-30T12:29:31.873Z,15.90
2019-04-30T12:31:37.399Z,16.10
2019-04-30T12:33:43.020Z,16.40
2019-04-30T12:35:49.146Z,16.70
2019-04-30T12:37:55.992Z,16.90
2019-04-30T12:40:01.661Z,17.00
2019-04-30T12:42:08.757Z,17.10
2019-04-30T12:44:14.351Z,17.10
2019-04-30T12:46:21.266Z,17.20
2019-04-30T12:48:39.487Z,17.40
2019-04-30T12:51:05.769Z,17.50
2019-04-30T12:53:18.873Z,17.40
2019-04-30T12:55:39.187Z,17.50
2019-04-30T12:57:56.152Z,17.40
2019-04-30T12:59:53.695Z,17.30
2019-04-30T13:01:59.402Z,17.00
2019-04-30T13:04:05.306Z,17.00
2019-04-30T13:06:11.727Z,16.90
2019-04-30T13:08:18.667Z,17.00
2019-04-30T13:10:25.192Z,17.00
2019-04-30T13:12:31.412Z,17.20
2019-04-30T13:14:51.035Z,17.40
2019-04-30T13:16:44.532Z,17.50
2019-04-30T13:18:50.107Z,17.50
2019-04-30T13:20:55.784Z,17.30
2019-04-30T13:23:01.355Z,17.20
2019-04-30T13:25:09.307Z,16.90
2019-04-30T13:27:15.123Z,16.80
2019-04-30T13:29:22.356Z,16.70
2019-04-30T13:31:29.425Z,16.70
2019-04-30T13:33:38.908Z,16.50
2019-04-30T13:35:43.973Z,16.40
2019-04-30T13:37:52.310Z,16.30
2019-04-30T13:39:59.568Z,16.20
2019-04-30T13:42:20.570Z,16.10
2019-04-30T13:44:29.405Z,16.00
2019-04-30T13:46:36.149Z,16.00
2019-04-30T13:48:41.737Z,16.10
2019-04-30T13:50:47.325Z,16.20
2019-04-30T13:52:53.004Z,16.30
2019-04-30T13:54:58.599Z,16.50
2019-04-30T13:57:04.181Z,16.70
2019-04-30T13:59:09.756Z,16.90
2019-04-30T14:01:15.343Z,17.10
2019-04-30T14:03:22.565Z,17.20
2019-04-30T14:05:28.260Z,17.20
2019-04-30T14:07:44.428Z,17.10
2019-04-30T14:09:52.359Z,17.10
2019-04-30T14:11:57.236Z,17.00
2019-04-30T14:14:02.829Z,16.90
2019-04-30T14:16:08.629Z,16.80
2019-04-30T14:18:14.139Z,16.80
2019-04-30T14:20:19.788Z,16.70
2019-04-30T14:22:25.326Z,16.50
2019-04-30T14:24:30.953Z,16.50
2019-04-30T14:26:36.620Z,16.50
2019-04-30T14:28:42.204Z,16.60
2019-04-30T14:30:47.865Z,16.60
2019-04-30T14:32:53.452Z,16.60
2019-04-30T14:34:59.091Z,16.70
2019-04-30T14:37:04.841Z,16.70
2019-04-30T14:39:16.094Z,16.80
2019-04-30T14:41:18.137Z,16.90
2019-04-30T14:43:26.311Z,17.00
2019-04-30T14:45:45.947Z,17.10
2019-04-30T14:47:54.324Z,17.20
2019-04-30T14:50:09.728Z,17.10
2019-04-30T14:52:15.227Z,17.10
2019-04-30T14:54:28.500Z,17.10
2019-04-30T14:56:49.396Z,17.20
2019-04-30T14:59:04.015Z,17.30
2019-04-30T15:01:14.033Z,17.20
2019-04-30T15:03:21.315Z,17.00
2019-04-30T15:05:38.101Z,16.60
2019-04-30T15:07:34.149Z,16.30
2019-04-30T15:09:39.804Z,16.00
2019-04-30T15:11:45.515Z,15.80
2019-04-30T15:13:51.310Z,15.80
2019-04-30T15:15:56.917Z,15.80
2019-04-30T15:18:02.644Z,15.60
2019-04-30T15:20:08.918Z,15.50
2019-04-30T15:22:14.621Z,15.60
2019-04-30T15:24:21.867Z,15.60
2019-04-30T15:26:28.813Z,15.50
2019-04-30T15:28:35.621Z,15.50
2019-04-30T15:30:42.087Z,15.40
2019-04-30T15:32:49.565Z,15.40
2019-04-30T15:34:55.257Z,15.40
2019-04-30T15:37:01.042Z,15.40
2019-04-30T15:39:15.661Z,15.40
2019-04-30T15:41:21.660Z,15.40
2019-04-30T15:43:27.405Z,15.30
2019-04-30T15:45:33.123Z,15.20
2019-04-30T15:47:38.832Z,15.20
2019-04-30T15:49:44.529Z,15.20
2019-04-30T15:51:50.072Z,15.10
2019-04-30T15:53:55.690Z,15.10
2019-04-30T15:56:01.285Z,14.90
2019-04-30T15:58:11.344Z,14.90
2019-04-30T16:00:18.724Z,15.00
2019-04-30T16:02:35.157Z,14.90
2019-04-30T16:04:54.483Z,14.90
2019-04-30T16:07:00.234Z,14.90
2019-04-30T16:09:10.596Z,14.80
2019-04-30T16:11:36.575Z,14.70
2019-04-30T16:13:59.947Z,14.40
2019-04-30T16:16:05.706Z,14.30
2019-04-30T16:18:11.574Z,14.10
2019-04-30T16:20:17.152Z,13.90
2019-04-30T16:22:23.103Z,13.90
2019-04-30T16:24:28.859Z,13.80
2019-04-30T16:26:46.366Z,13.70
2019-04-30T16:28:41.760Z,13.70
2019-04-30T16:30:47.549Z,13.50
2019-04-30T16:32:53.212Z,13.60
2019-04-30T16:34:59.271Z,13.50
2019-04-30T16:37:05.056Z,13.50
2019-04-30T16:39:10.835Z,13.50
2019-04-30T16:41:28.469Z,13.50
2019-04-30T16:43:23.804Z,13.60
2019-04-30T16:45:29.422Z,13.60
2019-04-30T16:47:35.088Z,13.50
2019-04-30T16:49:40.669Z,13.40
2019-04-30T16:51:46.278Z,13.40
2019-04-30T16:53:51.863Z,13.40
2019-04-30T16:55:58.631Z,13.50
2019-04-30T16:58:04.436Z,13.50
2019-04-30T17:00:12.690Z,13.50
2019-04-30T17:02:19.259Z,13.60
2019-04-30T17:04:29.476Z,13.50
2019-04-30T17:06:52.087Z,13.50
2019-04-30T17:08:59.292Z,13.60
2019-04-30T17:11:06.685Z,13.60
2019-04-30T17:13:14.956Z,13.60
2019-04-30T17:15:24.946Z,13.70
2019-04-30T17:17:30.521Z,13.60
2019-04-30T17:19:36.027Z,13.60
2019-04-30T17:21:41.691Z,13.60
2019-04-30T17:23:50.646Z,13.50
2019-04-30T17:25:54.557Z,13.50
2019-04-30T17:28:01.413Z,13.50
2019-04-30T17:30:11.012Z,13.50
2019-04-30T17:32:18.538Z,13.40
2019-04-30T17:34:24.048Z,13.40
2019-04-30T17:36:29.820Z,13.40
2019-04-30T17:38:35.584Z,13.40
2019-04-30T17:40:41.159Z,13.40
2019-04-30T17:42:46.910Z,13.40
2019-04-30T17:44:58.418Z,13.40
2019-04-30T17:47:00.145Z,13.20
2019-04-30T17:49:06.039Z,13.20
2019-04-30T17:51:11.669Z,13.10
2019-04-30T17:53:19.062Z,13.10
2019-04-30T17:55:24.947Z,13.10
2019-04-30T17:57:34.431Z,13.10
2019-04-30T17:59:37.837Z,13.20
2019-04-30T18:01:45.206Z,13.10
2019-04-30T18:03:50.978Z,13.10
2019-04-30T18:05:59.234Z,13.10
2019-04-30T18:08:05.226Z,13.10
2019-04-30T18:10:12.860Z,13.10
2019-04-30T18:12:19.921Z,13.10
2019-04-30T18:14:25.564Z,13.00
2019-04-30T18:16:31.314Z,13.00
2019-04-30T18:18:38.791Z,13.00
2019-04-30T18:20:52.025Z,12.90
2019-04-30T18:23:01.894Z,12.90
2019-04-30T18:25:09.392Z,12.90
2019-04-30T18:27:21.277Z,13.00
2019-04-30T18:29:26.665Z,12.90
2019-04-30T18:31:33.518Z,12.90
2019-04-30T18:33:40.111Z,13.00
2019-04-30T18:35:45.909Z,13.00
2019-04-30T18:37:51.583Z,13.00
2019-04-30T18:40:00.022Z,13.00
2019-04-30T18:42:04.791Z,13.00
2019-04-30T18:44:10.417Z,13.10
2019-04-30T18:46:15.985Z,13.20
2019-04-30T18:48:21.753Z,13.20
2019-04-30T18:50:27.469Z,13.20
2019-04-30T18:52:32.996Z,13.20
2019-04-30T18:54:39.743Z,13.20
2019-04-30T18:56:45.556Z,13.20
2019-04-30T18:58:51.297Z,13.10
2019-04-30T19:00:59.171Z,13.10
2019-04-30T19:03:04.844Z,13.00
2019-04-30T19:05:12.476Z,13.00
2019-04-30T19:07:34.942Z,12.90
2019-04-30T19:09:44.766Z,12.90
2019-04-30T19:12:00.904Z,12.80
2019-04-30T19:14:09.564Z,12.60
2019-04-30T19:16:23.036Z,12.60
2019-04-30T19:18:35.084Z,12.60
2019-04-30T19:20:44.869Z,12.50
2019-04-30T19:22:50.557Z,12.50
2019-04-30T19:24:59.240Z,12.50
2019-04-30T19:27:03.496Z,12.40
2019-04-30T19:29:09.036Z,12.40
2019-04-30T19:31:14.741Z,12.30
2019-04-30T19:33:20.405Z,12.30
2019-04-30T19:35:26.070Z,12.30
2019-04-30T19:37:31.799Z,12.20
2019-04-30T19:39:39.128Z,12.30
2019-04-30T19:41:44.947Z,12.20
2019-04-30T19:43:50.491Z,12.10
2019-04-30T19:45:56.086Z,12.00
2019-04-30T19:48:01.697Z,11.80
2019-04-30T19:50:09.379Z,11.80
2019-04-30T19:52:16.199Z,11.70
2019-04-30T19:54:21.861Z,11.80
2019-04-30T19:56:29.415Z,11.80
2019-04-30T19:58:50.072Z,11.80
2019-04-30T20:00:42.030Z,11.80
2019-04-30T20:02:48.766Z,11.70
2019-04-30T20:04:54.380Z,11.70
2019-04-30T20:06:59.901Z,11.70
2019-04-30T20:09:08.935Z,11.70
2019-04-30T20:11:16.189Z,11.70
2019-04-30T20:13:32.909Z,11.60
2019-04-30T20:15:29.837Z,11.60
2019-04-30T20:17:35.580Z,11.60
2019-04-30T20:19:42.180Z,11.60
2019-04-30T20:21:52.969Z,11.60
2019-04-30T20:23:54.985Z,11.60
2019-04-30T20:26:00.553Z,11.60
2019-04-30T20:28:06.267Z,11.60
2019-04-30T20:30:12.131Z,11.60
2019-04-30T20:32:19.539Z,11.70
2019-04-30T20:34:24.886Z,11.70
2019-04-30T20:36:30.456Z,11.60
2019-04-30T20:38:40.652Z,11.60
2019-04-30T20:40:59.544Z,11.70
2019-04-30T20:42:55.058Z,11.70
2019-04-30T20:45:03.571Z,11.70
2019-04-30T20:47:09.331Z,11.60
2019-04-30T20:49:14.849Z,11.60
2019-04-30T20:51:20.448Z,11.60
2019-04-30T20:53:27.063Z,11.60
2019-04-30T20:55:32.596Z,11.60
2019-04-30T20:57:39.489Z,11.60
2019-04-30T20:59:45.088Z,11.60
2019-04-30T21:01:50.618Z,11.60
2019-04-30T21:03:56.202Z,11.60
2019-04-30T21:06:01.803Z,11.60
2019-04-30T21:08:07.496Z,11.60
2019-04-30T21:10:15.475Z,11.60
2019-04-30T21:12:21.089Z,11.70
2019-04-30T21:14:26.679Z,11.60
2019-04-30T21:16:32.267Z,11.60
2019-04-30T21:18:39.129Z,11.60
2019-04-30T21:20:44.731Z,11.60
2019-04-30T21:22:50.326Z,11.60
2019-04-30T21:24:55.869Z,11.60
2019-04-30T21:27:01.392Z,11.60
2019-04-30T21:29:13.679Z,11.60
2019-04-30T21:31:31.197Z,11.60
2019-04-30T21:33:41.273Z,11.60
2019-04-30T21:35:48.584Z,11.50
2019-04-30T21:37:59.034Z,11.50
2019-04-30T21:40:06.295Z,11.50
2019-04-30T21:42:11.949Z,11.40
2019-04-30T21:44:17.504Z,11.30
2019-04-30T21:46:23.082Z,11.30
2019-04-30T21:48:28.823Z,11.20
2019-04-30T21:50:34.524Z,11.10
2019-04-30T21:52:40.362Z,11.10
2019-04-30T21:54:46.028Z,11.00
2019-04-30T21:56:51.577Z,10.90
2019-04-30T21:58:57.761Z,10.90
2019-04-30T22:01:08.970Z,10.90
2019-04-30T22:03:16.222Z,10.80
2019-04-30T22:05:21.737Z,10.80
2019-04-30T22:07:29.345Z,10.80
2019-04-30T22:09:34.596Z,10.80
2019-04-30T22:11:40.116Z,10.80
2019-04-30T22:13:45.786Z,10.80
2019-04-30T22:15:51.372Z,10.80
2019-04-30T22:17:57.064Z,10.70
2019-04-30T22:20:02.678Z,10.70
2019-04-30T22:22:09.395Z,10.60
2019-04-30T22:24:15.060Z,10.60
2019-04-30T22:26:20.587Z,10.50
2019-04-30T22:28:26.188Z,10.50
2019-04-30T22:30:31.718Z,10.50
2019-04-30T22:32:37.243Z,10.50
2019-04-30T22:34:42.805Z,10.50
2019-04-30T22:36:49.846Z,10.50
2019-04-30T22:38:57.035Z,10.50
2019-04-30T22:41:02.590Z,10.50
2019-04-30T22:43:09.339Z,10.50
2019-04-30T22:45:17.835Z,10.50
2019-04-30T22:47:23.448Z,10.50
2019-04-30T22:49:28.977Z,10.50
2019-04-30T22:51:34.644Z,10.50
2019-04-30T22:53:43.253Z,10.60
2019-04-30T22:55:48.828Z,10.60
2019-04-30T22:57:54.412Z,10.70
2019-04-30T23:00:00.050Z,10.60
2019-04-30T23:02:10.237Z,10.60
2019-04-30T23:04:20.656Z,10.50
2019-04-30T23:06:27.429Z,10.40
2019-04-30T23:08:32.946Z,10.40
2019-04-30T23:10:38.552Z,10.30
2019-04-30T23:12:44.176Z,10.30
2019-04-30T23:14:49.771Z,10.30
2019-04-30T23:16:55.354Z,10.30
2019-04-30T23:19:01.033Z,10.30
2019-04-30T23:21:06.637Z,10.30
2019-04-30T23:23:12.259Z,10.20
2019-04-30T23:25:17.837Z,10.20
2019-04-30T23:27:23.422Z,10.20
2019-04-30T23:29:29.040Z,10.30
2019-04-30T23:31:34.633Z,10.30
2019-04-30T23:33:40.221Z,10.30
2019-04-30T23:35:45.820Z,10.30
2019-04-30T23:37:51.442Z,10.30
2019-04-30T23:40:00.044Z,10.30
2019-04-30T23:42:05.682Z,10.20
2019-04-30T23:44:11.324Z,10.20
2019-04-30T23:46:16.958Z,10.10
2019-04-30T23:48:22.585Z,10.10
2019-04-30T23:50:28.110Z,10.00
2019-04-30T23:52:33.712Z,10.00
2019-04-30T23:54:39.348Z,10.00
2019-04-30T23:56:45.097Z,9.90
2019-04-30T23:58:50.660Z,9.90
